sensor_id;sensor_type;location;lat;lon;timestamp;P1;durP1;ratioP1;P2;durP2;ratioP2
9288;SDS011;4683;50.864;12.086;2024-02-16T00:02:04;4.10;;;3.70;;
9288;SDS011;4683;50.864;12.086;2024-02-16T00:04:32;5.00;;;3.20;;
9288;SDS011;4683;50.864;12.086;2024-02-16T00:07:01;3.57;;;3.27;;
9288;SDS011;4683;50.864;12.086;2024-02-16T00:09:31;3.90;;;3.50;;
9288;SDS011;4683;50.864;12.086;2024-02-16T00:12:00;3.40;;;3.10;;
9288;SDS011;4683;50.864;12.086;2024-02-16T00:14:28;3.40;;;3.10;;
9288;SDS011;4683;50.864;12.086;2024-02-16T00:16:56;3.83;;;3.17;;
9288;SDS011;4683;50.864;12.086;2024-02-16T00:19:25;3.57;;;3.27;;
9288;SDS011;4683;50.864;12.086;2024-02-16T00:21:54;4.33;;;3.10;;
9288;SDS011;4683;50.864;12.086;2024-02-16T00:24:24;5.03;;;3.10;;
9288;SDS011;4683;50.864;12.086;2024-02-16T00:26:54;4.50;;;3.47;;
9288;SDS011;4683;50.864;12.086;2024-02-16T00:29:23;5.20;;;3.50;;
9288;SDS011;4683;50.864;12.086;2024-02-16T00:31:53;4.57;;;3.93;;
9288;SDS011;4683;50.864;12.086;2024-02-16T00:34:22;4.40;;;4.00;;
9288;SDS011;4683;50.864;12.086;2024-02-16T00:36:50;3.63;;;3.20;;
9288;SDS011;4683;50.864;12.086;2024-02-16T00:39:19;3.80;;;3.50;;
9288;SDS011;4683;50.864;12.086;2024-02-16T00:41:48;4.77;;;3.30;;
9288;SDS011;4683;50.864;12.086;2024-02-16T00:44:18;5.33;;;3.73;;
9288;SDS011;4683;50.864;12.086;2024-02-16T00:46:47;3.73;;;3.40;;
9288;SDS011;4683;50.864;12.086;2024-02-16T00:49:15;4.87;;;4.07;;
9288;SDS011;4683;50.864;12.086;2024-02-16T00:51:43;4.50;;;3.53;;
9288;SDS011;4683;50.864;12.086;2024-02-16T00:54:12;4.60;;;3.60;;
9288;SDS011;4683;50.864;12.086;2024-02-16T00:56:40;4.03;;;3.63;;
9288;SDS011;4683;50.864;12.086;2024-02-16T00:59:08;6.10;;;3.80;;
9288;SDS011;4683;50.864;12.086;2024-02-16T01:01:39;5.40;;;3.50;;
9288;SDS011;4683;50.864;12.086;2024-02-16T01:04:09;4.30;;;3.67;;
9288;SDS011;4683;50.864;12.086;2024-02-16T01:06:37;3.70;;;3.40;;
9288;SDS011;4683;50.864;12.086;2024-02-16T01:09:06;3.97;;;3.60;;
9288;SDS011;4683;50.864;12.086;2024-02-16T01:11:37;4.43;;;3.00;;
9288;SDS011;4683;50.864;12.086;2024-02-16T01:14:08;4.70;;;3.77;;
9288;SDS011;4683;50.864;12.086;2024-02-16T01:16:40;6.17;;;3.30;;
9288;SDS011;4683;50.864;12.086;2024-02-16T01:19:09;3.83;;;2.93;;
9288;SDS011;4683;50.864;12.086;2024-02-16T01:21:38;3.30;;;3.00;;
9288;SDS011;4683;50.864;12.086;2024-02-16T01:24:07;3.77;;;3.17;;
9288;SDS011;4683;50.864;12.086;2024-02-16T01:26:35;3.17;;;2.97;;
9288;SDS011;4683;50.864;12.086;2024-02-16T01:29:04;2.80;;;2.60;;
9288;SDS011;4683;50.864;12.086;2024-02-16T01:31:32;2.80;;;2.60;;
9288;SDS011;4683;50.864;12.086;2024-02-16T01:34:04;4.43;;;2.80;;
9288;SDS011;4683;50.864;12.086;2024-02-16T01:36:32;3.10;;;2.80;;
9288;SDS011;4683;50.864;12.086;2024-02-16T01:39:05;7.23;;;2.80;;
9288;SDS011;4683;50.864;12.086;2024-02-16T01:41:37;5.13;;;3.10;;
9288;SDS011;4683;50.864;12.086;2024-02-16T01:44:06;3.20;;;2.90;;
9288;SDS011;4683;50.864;12.086;2024-02-16T01:46:35;3.90;;;2.90;;
9288;SDS011;4683;50.864;12.086;2024-02-16T01:49:06;3.20;;;3.00;;
9288;SDS011;4683;50.864;12.086;2024-02-16T01:51:34;3.00;;;2.70;;
9288;SDS011;4683;50.864;12.086;2024-02-16T01:57:31;3.30;;;2.87;;
9288;SDS011;4683;50.864;12.086;2024-02-16T02:00:01;4.77;;;2.87;;
9288;SDS011;4683;50.864;12.086;2024-02-16T02:02:34;3.77;;;2.87;;
9288;SDS011;4683;50.864;12.086;2024-02-16T02:05:04;3.90;;;3.13;;
9288;SDS011;4683;50.864;12.086;2024-02-16T02:07:33;2.70;;;2.50;;
9288;SDS011;4683;50.864;12.086;2024-02-16T02:10:05;3.53;;;3.20;;
9288;SDS011;4683;50.864;12.086;2024-02-16T02:12:38;4.07;;;3.10;;
9288;SDS011;4683;50.864;12.086;2024-02-16T02:15:09;2.70;;;2.50;;
9288;SDS011;4683;50.864;12.086;2024-02-16T02:17:39;3.90;;;3.00;;
9288;SDS011;4683;50.864;12.086;2024-02-16T02:20:09;3.53;;;2.43;;
9288;SDS011;4683;50.864;12.086;2024-02-16T02:22:41;3.00;;;2.67;;
9288;SDS011;4683;50.864;12.086;2024-02-16T02:25:14;2.93;;;2.73;;
9288;SDS011;4683;50.864;12.086;2024-02-16T02:27:44;3.63;;;3.00;;
9288;SDS011;4683;50.864;12.086;2024-02-16T02:30:13;3.97;;;3.00;;
9288;SDS011;4683;50.864;12.086;2024-02-16T02:32:42;5.13;;;2.93;;
9288;SDS011;4683;50.864;12.086;2024-02-16T02:35:14;4.60;;;2.90;;
9288;SDS011;4683;50.864;12.086;2024-02-16T02:37:47;2.90;;;2.67;;
9288;SDS011;4683;50.864;12.086;2024-02-16T02:40:17;4.07;;;3.20;;
9288;SDS011;4683;50.864;12.086;2024-02-16T02:42:46;3.07;;;2.73;;
9288;SDS011;4683;50.864;12.086;2024-02-16T02:45:14;4.47;;;2.90;;
9288;SDS011;4683;50.864;12.086;2024-02-16T02:47:43;3.00;;;2.70;;
9288;SDS011;4683;50.864;12.086;2024-02-16T02:50:12;3.10;;;2.80;;
9288;SDS011;4683;50.864;12.086;2024-02-16T02:52:40;3.10;;;2.80;;
9288;SDS011;4683;50.864;12.086;2024-02-16T02:55:12;2.70;;;2.50;;
9288;SDS011;4683;50.864;12.086;2024-02-16T02:57:41;4.80;;;3.00;;
9288;SDS011;4683;50.864;12.086;2024-02-16T03:00:10;3.07;;;2.60;;
9288;SDS011;4683;50.864;12.086;2024-02-16T03:02:40;3.13;;;2.70;;
9288;SDS011;4683;50.864;12.086;2024-02-16T03:05:09;2.87;;;2.60;;
9288;SDS011;4683;50.864;12.086;2024-02-16T03:07:39;3.17;;;2.27;;
9288;SDS011;4683;50.864;12.086;2024-02-16T03:10:09;3.33;;;2.60;;
9288;SDS011;4683;50.864;12.086;2024-02-16T03:12:47;2.80;;;2.50;;
9288;SDS011;4683;50.864;12.086;2024-02-16T03:15:18;4.03;;;2.87;;
9288;SDS011;4683;50.864;12.086;2024-02-16T03:17:47;2.80;;;2.50;;
9288;SDS011;4683;50.864;12.086;2024-02-16T03:20:15;3.97;;;2.40;;
9288;SDS011;4683;50.864;12.086;2024-02-16T03:22:47;3.47;;;2.63;;
9288;SDS011;4683;50.864;12.086;2024-02-16T03:25:20;2.83;;;2.57;;
9288;SDS011;4683;50.864;12.086;2024-02-16T03:27:49;3.53;;;2.83;;
9288;SDS011;4683;50.864;12.086;2024-02-16T03:30:20;4.87;;;2.70;;
9288;SDS011;4683;50.864;12.086;2024-02-16T03:32:49;3.13;;;2.80;;
9288;SDS011;4683;50.864;12.086;2024-02-16T03:35:18;3.60;;;2.80;;
9288;SDS011;4683;50.864;12.086;2024-02-16T03:37:48;7.87;;;2.67;;
9288;SDS011;4683;50.864;12.086;2024-02-16T03:40:19;5.10;;;2.90;;
9288;SDS011;4683;50.864;12.086;2024-02-16T03:42:50;3.00;;;2.70;;
9288;SDS011;4683;50.864;12.086;2024-02-16T03:45:20;4.03;;;3.47;;
9288;SDS011;4683;50.864;12.086;2024-02-16T03:47:48;6.10;;;2.63;;
9288;SDS011;4683;50.864;12.086;2024-02-16T03:50:22;2.77;;;2.57;;
9288;SDS011;4683;50.864;12.086;2024-02-16T03:52:53;3.93;;;2.80;;
9288;SDS011;4683;50.864;12.086;2024-02-16T03:55:23;5.47;;;3.70;;
9288;SDS011;4683;50.864;12.086;2024-02-16T03:57:51;3.20;;;2.90;;
9288;SDS011;4683;50.864;12.086;2024-02-16T04:00:20;3.37;;;2.90;;
9288;SDS011;4683;50.864;12.086;2024-02-16T04:02:49;3.30;;;3.00;;
9288;SDS011;4683;50.864;12.086;2024-02-16T04:05:19;3.67;;;2.77;;
9288;SDS011;4683;50.864;12.086;2024-02-16T04:07:48;3.33;;;3.00;;
9288;SDS011;4683;50.864;12.086;2024-02-16T04:10:18;3.20;;;2.80;;
9288;SDS011;4683;50.864;12.086;2024-02-16T04:12:48;4.20;;;2.90;;
9288;SDS011;4683;50.864;12.086;2024-02-16T04:15:18;3.13;;;2.83;;
9288;SDS011;4683;50.864;12.086;2024-02-16T04:17:46;4.50;;;3.30;;
9288;SDS011;4683;50.864;12.086;2024-02-16T04:20:16;3.80;;;3.30;;
9288;SDS011;4683;50.864;12.086;2024-02-16T04:22:46;4.83;;;4.33;;
9288;SDS011;4683;50.864;12.086;2024-02-16T04:25:14;3.73;;;3.43;;
9288;SDS011;4683;50.864;12.086;2024-02-16T04:27:44;3.97;;;3.57;;
9288;SDS011;4683;50.864;12.086;2024-02-16T04:30:20;4.37;;;3.73;;
9288;SDS011;4683;50.864;12.086;2024-02-16T04:32:49;3.80;;;3.37;;
9288;SDS011;4683;50.864;12.086;2024-02-16T04:35:20;4.50;;;4.10;;
9288;SDS011;4683;50.864;12.086;2024-02-16T04:37:49;3.57;;;3.03;;
9288;SDS011;4683;50.864;12.086;2024-02-16T04:40:19;5.00;;;4.30;;
9288;SDS011;4683;50.864;12.086;2024-02-16T04:42:48;4.00;;;3.03;;
9288;SDS011;4683;50.864;12.086;2024-02-16T04:45:17;3.73;;;3.40;;
9288;SDS011;4683;50.864;12.086;2024-02-16T04:47:46;3.73;;;2.90;;
9288;SDS011;4683;50.864;12.086;2024-02-16T04:50:15;4.67;;;3.53;;
9288;SDS011;4683;50.864;12.086;2024-02-16T04:52:44;3.07;;;2.77;;
9288;SDS011;4683;50.864;12.086;2024-02-16T04:55:14;3.97;;;2.70;;
9288;SDS011;4683;50.864;12.086;2024-02-16T04:57:43;2.80;;;2.60;;
9288;SDS011;4683;50.864;12.086;2024-02-16T05:00:12;3.10;;;2.90;;
9288;SDS011;4683;50.864;12.086;2024-02-16T05:02:45;3.00;;;2.67;;
9288;SDS011;4683;50.864;12.086;2024-02-16T05:05:14;3.20;;;2.83;;
9288;SDS011;4683;50.864;12.086;2024-02-16T05:07:46;3.57;;;3.00;;
9288;SDS011;4683;50.864;12.086;2024-02-16T05:10:17;2.83;;;2.60;;
9288;SDS011;4683;50.864;12.086;2024-02-16T05:12:46;4.80;;;2.80;;
9288;SDS011;4683;50.864;12.086;2024-02-16T05:15:15;3.00;;;2.70;;
9288;SDS011;4683;50.864;12.086;2024-02-16T05:17:48;3.40;;;2.70;;
9288;SDS011;4683;50.864;12.086;2024-02-16T05:20:18;3.10;;;2.80;;
9288;SDS011;4683;50.864;12.086;2024-02-16T05:22:48;3.47;;;3.17;;
9288;SDS011;4683;50.864;12.086;2024-02-16T05:25:24;8.93;;;3.30;;
9288;SDS011;4683;50.864;12.086;2024-02-16T05:27:54;4.00;;;3.20;;
9288;SDS011;4683;50.864;12.086;2024-02-16T05:30:23;3.10;;;2.90;;
9288;SDS011;4683;50.864;12.086;2024-02-16T05:32:53;3.33;;;3.03;;
9288;SDS011;4683;50.864;12.086;2024-02-16T05:35:25;3.57;;;3.27;;
9288;SDS011;4683;50.864;12.086;2024-02-16T05:38:00;3.03;;;2.73;;
9288;SDS011;4683;50.864;12.086;2024-02-16T05:40:35;3.97;;;3.00;;
9288;SDS011;4683;50.864;12.086;2024-02-16T05:43:20;3.90;;;2.97;;
9288;SDS011;4683;50.864;12.086;2024-02-16T05:45:49;3.90;;;3.10;;
9288;SDS011;4683;50.864;12.086;2024-02-16T05:48:21;3.90;;;3.47;;
9288;SDS011;4683;50.864;12.086;2024-02-16T05:50:50;4.00;;;3.60;;
9288;SDS011;4683;50.864;12.086;2024-02-16T05:53:19;5.70;;;4.47;;
9288;SDS011;4683;50.864;12.086;2024-02-16T05:55:50;4.07;;;3.67;;
9288;SDS011;4683;50.864;12.086;2024-02-16T05:58:19;4.67;;;3.93;;
9288;SDS011;4683;50.864;12.086;2024-02-16T06:00:53;4.33;;;3.80;;
9288;SDS011;4683;50.864;12.086;2024-02-16T06:03:25;3.50;;;3.20;;
9288;SDS011;4683;50.864;12.086;2024-02-16T06:05:54;3.70;;;3.40;;
9288;SDS011;4683;50.864;12.086;2024-02-16T06:08:23;3.70;;;3.40;;
9288;SDS011;4683;50.864;12.086;2024-02-16T06:10:53;3.53;;;3.13;;
9288;SDS011;4683;50.864;12.086;2024-02-16T06:17:29;3.20;;;2.97;;
9288;SDS011;4683;50.864;12.086;2024-02-16T06:20:02;9.27;;;7.00;;
9288;SDS011;4683;50.864;12.086;2024-02-16T06:22:35;3.70;;;3.40;;
9288;SDS011;4683;50.864;12.086;2024-02-16T06:25:07;4.90;;;3.67;;
9288;SDS011;4683;50.864;12.086;2024-02-16T06:27:37;6.60;;;3.70;;
9288;SDS011;4683;50.864;12.086;2024-02-16T06:30:06;3.30;;;3.00;;
9288;SDS011;4683;50.864;12.086;2024-02-16T06:32:40;3.80;;;3.40;;
9288;SDS011;4683;50.864;12.086;2024-02-16T06:35:10;4.07;;;3.60;;
9288;SDS011;4683;50.864;12.086;2024-02-16T06:37:38;4.67;;;3.20;;
9288;SDS011;4683;50.864;12.086;2024-02-16T06:40:07;4.37;;;3.97;;
9288;SDS011;4683;50.864;12.086;2024-02-16T06:42:37;5.63;;;3.90;;
9288;SDS011;4683;50.864;12.086;2024-02-16T06:45:07;5.17;;;3.90;;
9288;SDS011;4683;50.864;12.086;2024-02-16T06:47:42;4.90;;;3.87;;
9288;SDS011;4683;50.864;12.086;2024-02-16T06:50:25;4.07;;;3.10;;
9288;SDS011;4683;50.864;12.086;2024-02-16T06:52:59;4.67;;;3.43;;
9288;SDS011;4683;50.864;12.086;2024-02-16T06:55:33;4.23;;;3.83;;
9288;SDS011;4683;50.864;12.086;2024-02-16T06:58:06;5.83;;;4.17;;
9288;SDS011;4683;50.864;12.086;2024-02-16T07:00:35;3.70;;;3.40;;
9288;SDS011;4683;50.864;12.086;2024-02-16T07:03:04;4.13;;;3.47;;
9288;SDS011;4683;50.864;12.086;2024-02-16T07:05:36;4.47;;;3.60;;
9288;SDS011;4683;50.864;12.086;2024-02-16T07:08:06;4.93;;;4.07;;
9288;SDS011;4683;50.864;12.086;2024-02-16T07:10:34;4.37;;;4.00;;
9288;SDS011;4683;50.864;12.086;2024-02-16T07:13:04;4.87;;;3.90;;
9288;SDS011;4683;50.864;12.086;2024-02-16T07:15:32;5.17;;;4.43;;
9288;SDS011;4683;50.864;12.086;2024-02-16T07:18:03;4.30;;;3.90;;
9288;SDS011;4683;50.864;12.086;2024-02-16T07:20:32;5.13;;;3.50;;
9288;SDS011;4683;50.864;12.086;2024-02-16T07:23:07;2.90;;;2.60;;
9288;SDS011;4683;50.864;12.086;2024-02-16T07:25:38;4.00;;;3.70;;
9288;SDS011;4683;50.864;12.086;2024-02-16T07:28:08;5.50;;;5.00;;
9288;SDS011;4683;50.864;12.086;2024-02-16T07:30:36;3.40;;;3.10;;
9288;SDS011;4683;50.864;12.086;2024-02-16T07:33:06;3.40;;;3.10;;
9288;SDS011;4683;50.864;12.086;2024-02-16T07:35:35;5.90;;;4.50;;
9288;SDS011;4683;50.864;12.086;2024-02-16T07:38:08;5.67;;;5.10;;
9288;SDS011;4683;50.864;12.086;2024-02-16T07:40:38;4.37;;;3.97;;
9288;SDS011;4683;50.864;12.086;2024-02-16T07:43:08;4.00;;;3.60;;
9288;SDS011;4683;50.864;12.086;2024-02-16T07:48:10;4.20;;;3.60;;
9288;SDS011;4683;50.864;12.086;2024-02-16T07:50:39;3.30;;;3.00;;
9288;SDS011;4683;50.864;12.086;2024-02-16T07:53:09;3.80;;;2.77;;
9288;SDS011;4683;50.864;12.086;2024-02-16T07:55:39;3.67;;;2.70;;
9288;SDS011;4683;50.864;12.086;2024-02-16T07:58:19;3.73;;;2.77;;
9288;SDS011;4683;50.864;12.086;2024-02-16T08:00:48;3.23;;;2.70;;
9288;SDS011;4683;50.864;12.086;2024-02-16T08:03:17;2.60;;;2.40;;
9288;SDS011;4683;50.864;12.086;2024-02-16T08:05:47;4.33;;;2.70;;
9288;SDS011;4683;50.864;12.086;2024-02-16T08:08:17;3.30;;;3.00;;
9288;SDS011;4683;50.864;12.086;2024-02-16T08:10:51;3.50;;;2.77;;
9288;SDS011;4683;50.864;12.086;2024-02-16T08:16:16;3.77;;;3.37;;
9288;SDS011;4683;50.864;12.086;2024-02-16T08:19:01;4.90;;;3.27;;
9288;SDS011;4683;50.864;12.086;2024-02-16T08:21:30;5.43;;;3.67;;
9288;SDS011;4683;50.864;12.086;2024-02-16T08:24:01;5.50;;;4.83;;
9288;SDS011;4683;50.864;12.086;2024-02-16T08:26:31;7.33;;;6.63;;
9288;SDS011;4683;50.864;12.086;2024-02-16T08:29:00;4.50;;;4.03;;
9288;SDS011;4683;50.864;12.086;2024-02-16T08:31:30;4.20;;;3.00;;
9288;SDS011;4683;50.864;12.086;2024-02-16T08:34:02;5.50;;;3.77;;
9288;SDS011;4683;50.864;12.086;2024-02-16T08:36:33;3.27;;;2.60;;
9288;SDS011;4683;50.864;12.086;2024-02-16T08:39:03;3.17;;;2.90;;
9288;SDS011;4683;50.864;12.086;2024-02-16T08:41:32;6.20;;;3.50;;
9288;SDS011;4683;50.864;12.086;2024-02-16T08:44:00;3.20;;;2.90;;
9288;SDS011;4683;50.864;12.086;2024-02-16T08:46:29;3.10;;;2.90;;
9288;SDS011;4683;50.864;12.086;2024-02-16T08:48:58;3.63;;;2.80;;
9288;SDS011;4683;50.864;12.086;2024-02-16T08:51:26;3.23;;;2.60;;
9288;SDS011;4683;50.864;12.086;2024-02-16T08:53:56;3.03;;;2.77;;
9288;SDS011;4683;50.864;12.086;2024-02-16T08:56:29;3.83;;;2.73;;
9288;SDS011;4683;50.864;12.086;2024-02-16T08:58:58;2.67;;;2.47;;
9288;SDS011;4683;50.864;12.086;2024-02-16T09:01:30;2.80;;;2.50;;
9288;SDS011;4683;50.864;12.086;2024-02-16T09:03:59;3.13;;;2.27;;
9288;SDS011;4683;50.864;12.086;2024-02-16T09:06:27;3.17;;;2.47;;
9288;SDS011;4683;50.864;12.086;2024-02-16T09:08:55;2.60;;;2.40;;
9288;SDS011;4683;50.864;12.086;2024-02-16T09:11:29;2.53;;;2.30;;
9288;SDS011;4683;50.864;12.086;2024-02-16T09:13:58;2.40;;;2.20;;
9288;SDS011;4683;50.864;12.086;2024-02-16T09:16:28;3.97;;;2.90;;
9288;SDS011;4683;50.864;12.086;2024-02-16T09:18:57;2.83;;;2.33;;
9288;SDS011;4683;50.864;12.086;2024-02-16T09:21:27;3.67;;;2.40;;
9288;SDS011;4683;50.864;12.086;2024-02-16T09:23:56;2.47;;;2.07;;
9288;SDS011;4683;50.864;12.086;2024-02-16T09:26:28;2.50;;;2.30;;
9288;SDS011;4683;50.864;12.086;2024-02-16T09:28:59;3.13;;;2.30;;
9288;SDS011;4683;50.864;12.086;2024-02-16T09:31:29;2.60;;;2.40;;
9288;SDS011;4683;50.864;12.086;2024-02-16T09:33:57;3.70;;;2.53;;
9288;SDS011;4683;50.864;12.086;2024-02-16T09:36:30;2.60;;;2.40;;
9288;SDS011;4683;50.864;12.086;2024-02-16T09:39:02;2.77;;;2.30;;
9288;SDS011;4683;50.864;12.086;2024-02-16T09:41:32;2.40;;;2.27;;
9288;SDS011;4683;50.864;12.086;2024-02-16T09:44:04;2.70;;;2.50;;
9288;SDS011;4683;50.864;12.086;2024-02-16T09:46:33;3.60;;;2.30;;
9288;SDS011;4683;50.864;12.086;2024-02-16T09:49:02;2.40;;;2.20;;
9288;SDS011;4683;50.864;12.086;2024-02-16T09:51:32;2.13;;;2.03;;
9288;SDS011;4683;50.864;12.086;2024-02-16T09:54:07;3.00;;;2.70;;
9288;SDS011;4683;50.864;12.086;2024-02-16T09:56:42;2.83;;;2.30;;
9288;SDS011;4683;50.864;12.086;2024-02-16T09:59:12;2.73;;;2.50;;
9288;SDS011;4683;50.864;12.086;2024-02-16T10:01:42;3.23;;;2.20;;
9288;SDS011;4683;50.864;12.086;2024-02-16T10:04:11;2.77;;;2.20;;
9288;SDS011;4683;50.864;12.086;2024-02-16T10:06:47;2.50;;;2.20;;
9288;SDS011;4683;50.864;12.086;2024-02-16T10:09:22;2.83;;;2.53;;
9288;SDS011;4683;50.864;12.086;2024-02-16T10:11:55;3.67;;;2.33;;
9288;SDS011;4683;50.864;12.086;2024-02-16T10:14:24;2.50;;;2.30;;
9288;SDS011;4683;50.864;12.086;2024-02-16T10:17:03;2.70;;;2.50;;
9288;SDS011;4683;50.864;12.086;2024-02-16T10:19:36;2.40;;;2.20;;
9288;SDS011;4683;50.864;12.086;2024-02-16T10:22:08;2.30;;;2.03;;
9288;SDS011;4683;50.864;12.086;2024-02-16T10:24:39;3.17;;;2.30;;
9288;SDS011;4683;50.864;12.086;2024-02-16T10:27:18;2.63;;;2.40;;
9288;SDS011;4683;50.864;12.086;2024-02-16T10:29:47;3.93;;;2.10;;
9288;SDS011;4683;50.864;12.086;2024-02-16T10:32:20;2.50;;;2.30;;
9288;SDS011;4683;50.864;12.086;2024-02-16T10:34:51;2.90;;;2.10;;
9288;SDS011;4683;50.864;12.086;2024-02-16T10:37:22;2.47;;;2.27;;
9288;SDS011;4683;50.864;12.086;2024-02-16T10:39:53;2.10;;;1.90;;
9288;SDS011;4683;50.864;12.086;2024-02-16T10:42:27;2.60;;;2.30;;
9288;SDS011;4683;50.864;12.086;2024-02-16T10:44:58;2.40;;;2.20;;
9288;SDS011;4683;50.864;12.086;2024-02-16T10:47:28;2.67;;;2.47;;
9288;SDS011;4683;50.864;12.086;2024-02-16T10:49:57;3.40;;;2.53;;
9288;SDS011;4683;50.864;12.086;2024-02-16T10:52:28;3.53;;;2.43;;
9288;SDS011;4683;50.864;12.086;2024-02-16T10:54:57;2.30;;;2.10;;
9288;SDS011;4683;50.864;12.086;2024-02-16T10:57:29;6.00;;;2.70;;
9288;SDS011;4683;50.864;12.086;2024-02-16T10:59:59;4.70;;;2.83;;
9288;SDS011;4683;50.864;12.086;2024-02-16T11:02:28;2.80;;;2.60;;
9288;SDS011;4683;50.864;12.086;2024-02-16T11:04:59;2.60;;;2.37;;
9288;SDS011;4683;50.864;12.086;2024-02-16T11:07:35;3.10;;;2.53;;
9288;SDS011;4683;50.864;12.086;2024-02-16T11:10:11;4.47;;;2.33;;
9288;SDS011;4683;50.864;12.086;2024-02-16T11:12:44;2.40;;;2.20;;
9288;SDS011;4683;50.864;12.086;2024-02-16T11:15:13;3.10;;;2.50;;
9288;SDS011;4683;50.864;12.086;2024-02-16T11:17:41;5.07;;;3.50;;
9288;SDS011;4683;50.864;12.086;2024-02-16T11:20:10;7.20;;;4.43;;
9288;SDS011;4683;50.864;12.086;2024-02-16T11:22:41;3.23;;;2.80;;
9288;SDS011;4683;50.864;12.086;2024-02-16T11:25:10;3.50;;;3.20;;
9288;SDS011;4683;50.864;12.086;2024-02-16T11:27:39;3.77;;;3.47;;
9288;SDS011;4683;50.864;12.086;2024-02-16T11:30:13;4.53;;;4.03;;
9288;SDS011;4683;50.864;12.086;2024-02-16T11:32:42;3.67;;;2.40;;
9288;SDS011;4683;50.864;12.086;2024-02-16T11:35:13;3.27;;;2.23;;
9288;SDS011;4683;50.864;12.086;2024-02-16T11:37:42;3.33;;;2.20;;
9288;SDS011;4683;50.864;12.086;2024-02-16T11:40:13;2.50;;;2.30;;
9288;SDS011;4683;50.864;12.086;2024-02-16T11:42:42;3.97;;;2.60;;
9288;SDS011;4683;50.864;12.086;2024-02-16T11:45:15;2.37;;;2.17;;
9288;SDS011;4683;50.864;12.086;2024-02-16T11:47:44;2.40;;;2.20;;
9288;SDS011;4683;50.864;12.086;2024-02-16T11:50:13;2.70;;;2.17;;
9288;SDS011;4683;50.864;12.086;2024-02-16T11:52:43;4.03;;;2.53;;
9288;SDS011;4683;50.864;12.086;2024-02-16T11:55:15;3.07;;;2.07;;
9288;SDS011;4683;50.864;12.086;2024-02-16T11:57:45;3.00;;;2.10;;
9288;SDS011;4683;50.864;12.086;2024-02-16T12:00:20;4.27;;;2.60;;
9288;SDS011;4683;50.864;12.086;2024-02-16T12:02:58;2.73;;;2.50;;
9288;SDS011;4683;50.864;12.086;2024-02-16T12:05:28;2.93;;;2.70;;
9288;SDS011;4683;50.864;12.086;2024-02-16T12:07:57;2.93;;;2.40;;
9288;SDS011;4683;50.864;12.086;2024-02-16T12:10:27;3.60;;;2.53;;
9288;SDS011;4683;50.864;12.086;2024-02-16T12:12:57;4.20;;;1.97;;
9288;SDS011;4683;50.864;12.086;2024-02-16T12:15:30;4.50;;;3.33;;
9288;SDS011;4683;50.864;12.086;2024-02-16T12:18:00;2.80;;;2.30;;
9288;SDS011;4683;50.864;12.086;2024-02-16T12:20:29;3.17;;;2.77;;
9288;SDS011;4683;50.864;12.086;2024-02-16T12:23:10;4.27;;;3.13;;
9288;SDS011;4683;50.864;12.086;2024-02-16T12:25:42;4.00;;;2.70;;
9288;SDS011;4683;50.864;12.086;2024-02-16T12:28:12;3.87;;;2.87;;
9288;SDS011;4683;50.864;12.086;2024-02-16T12:30:43;4.40;;;3.00;;
9288;SDS011;4683;50.864;12.086;2024-02-16T12:33:11;3.63;;;2.80;;
9288;SDS011;4683;50.864;12.086;2024-02-16T12:35:43;4.20;;;2.63;;
9288;SDS011;4683;50.864;12.086;2024-02-16T12:38:14;4.20;;;2.90;;
9288;SDS011;4683;50.864;12.086;2024-02-16T12:40:46;5.13;;;3.60;;
9288;SDS011;4683;50.864;12.086;2024-02-16T12:43:17;3.27;;;2.97;;
9288;SDS011;4683;50.864;12.086;2024-02-16T12:45:51;3.10;;;2.80;;
9288;SDS011;4683;50.864;12.086;2024-02-16T12:48:19;2.50;;;2.30;;
9288;SDS011;4683;50.864;12.086;2024-02-16T12:50:48;5.07;;;3.57;;
9288;SDS011;4683;50.864;12.086;2024-02-16T12:53:19;2.60;;;2.37;;
9288;SDS011;4683;50.864;12.086;2024-02-16T12:55:50;3.57;;;2.50;;
9288;SDS011;4683;50.864;12.086;2024-02-16T12:58:19;5.23;;;2.60;;
9288;SDS011;4683;50.864;12.086;2024-02-16T13:00:50;3.13;;;2.70;;
9288;SDS011;4683;50.864;12.086;2024-02-16T13:03:19;2.63;;;2.40;;
9288;SDS011;4683;50.864;12.086;2024-02-16T13:05:48;3.03;;;2.43;;
9288;SDS011;4683;50.864;12.086;2024-02-16T13:08:19;4.63;;;2.90;;
9288;SDS011;4683;50.864;12.086;2024-02-16T13:10:49;2.70;;;2.50;;
9288;SDS011;4683;50.864;12.086;2024-02-16T13:13:17;3.20;;;2.90;;
9288;SDS011;4683;50.864;12.086;2024-02-16T13:15:47;3.20;;;2.90;;
9288;SDS011;4683;50.864;12.086;2024-02-16T13:18:19;3.00;;;2.70;;
9288;SDS011;4683;50.864;12.086;2024-02-16T13:20:47;2.60;;;2.33;;
9288;SDS011;4683;50.864;12.086;2024-02-16T13:23:15;3.00;;;2.70;;
9288;SDS011;4683;50.864;12.086;2024-02-16T13:25:43;5.57;;;2.80;;
9288;SDS011;4683;50.864;12.086;2024-02-16T13:28:12;2.90;;;2.70;;
9288;SDS011;4683;50.864;12.086;2024-02-16T13:30:43;3.23;;;2.77;;
9288;SDS011;4683;50.864;12.086;2024-02-16T13:33:14;2.97;;;2.67;;
9288;SDS011;4683;50.864;12.086;2024-02-16T13:35:43;2.87;;;2.60;;
9288;SDS011;4683;50.864;12.086;2024-02-16T13:38:12;3.03;;;2.70;;
9288;SDS011;4683;50.864;12.086;2024-02-16T13:40:41;2.97;;;2.70;;
9288;SDS011;4683;50.864;12.086;2024-02-16T13:43:10;3.00;;;2.70;;
9288;SDS011;4683;50.864;12.086;2024-02-16T13:45:50;3.67;;;2.87;;
9288;SDS011;4683;50.864;12.086;2024-02-16T13:48:21;2.97;;;2.73;;
9288;SDS011;4683;50.864;12.086;2024-02-16T13:50:53;3.13;;;2.90;;
9288;SDS011;4683;50.864;12.086;2024-02-16T13:53:23;2.60;;;2.40;;
9288;SDS011;4683;50.864;12.086;2024-02-16T13:55:53;3.03;;;2.60;;
9288;SDS011;4683;50.864;12.086;2024-02-16T13:58:22;4.83;;;2.40;;
9288;SDS011;4683;50.864;12.086;2024-02-16T14:00:52;3.40;;;2.50;;
9288;SDS011;4683;50.864;12.086;2024-02-16T14:03:23;3.17;;;2.87;;
9288;SDS011;4683;50.864;12.086;2024-02-16T14:05:51;3.97;;;2.40;;
9288;SDS011;4683;50.864;12.086;2024-02-16T14:08:22;2.53;;;2.33;;
9288;SDS011;4683;50.864;12.086;2024-02-16T14:10:50;2.80;;;2.60;;
9288;SDS011;4683;50.864;12.086;2024-02-16T14:13:19;2.50;;;2.23;;
9288;SDS011;4683;50.864;12.086;2024-02-16T14:15:51;3.00;;;2.63;;
9288;SDS011;4683;50.864;12.086;2024-02-16T14:18:19;3.33;;;2.80;;
9288;SDS011;4683;50.864;12.086;2024-02-16T14:20:51;4.10;;;2.63;;
9288;SDS011;4683;50.864;12.086;2024-02-16T14:23:20;2.63;;;2.43;;
9288;SDS011;4683;50.864;12.086;2024-02-16T14:25:48;2.73;;;2.53;;
9288;SDS011;4683;50.864;12.086;2024-02-16T14:28:18;4.03;;;2.77;;
9288;SDS011;4683;50.864;12.086;2024-02-16T14:30:46;2.77;;;2.53;;
9288;SDS011;4683;50.864;12.086;2024-02-16T14:33:15;2.80;;;2.50;;
9288;SDS011;4683;50.864;12.086;2024-02-16T14:35:47;4.27;;;3.07;;
9288;SDS011;4683;50.864;12.086;2024-02-16T14:38:17;3.27;;;2.97;;
9288;SDS011;4683;50.864;12.086;2024-02-16T14:40:46;3.40;;;2.70;;
9288;SDS011;4683;50.864;12.086;2024-02-16T14:43:15;2.73;;;2.50;;
9288;SDS011;4683;50.864;12.086;2024-02-16T14:45:45;3.20;;;2.90;;
9288;SDS011;4683;50.864;12.086;2024-02-16T14:48:16;2.77;;;2.40;;
9288;SDS011;4683;50.864;12.086;2024-02-16T14:50:49;3.00;;;2.40;;
9288;SDS011;4683;50.864;12.086;2024-02-16T14:53:19;2.70;;;2.50;;
9288;SDS011;4683;50.864;12.086;2024-02-16T14:55:49;4.07;;;3.00;;
9288;SDS011;4683;50.864;12.086;2024-02-16T14:58:17;5.43;;;3.03;;
9288;SDS011;4683;50.864;12.086;2024-02-16T15:00:47;4.07;;;2.90;;
9288;SDS011;4683;50.864;12.086;2024-02-16T15:03:15;3.83;;;2.67;;
9288;SDS011;4683;50.864;12.086;2024-02-16T15:05:48;2.90;;;2.60;;
9288;SDS011;4683;50.864;12.086;2024-02-16T15:08:17;3.00;;;2.70;;
9288;SDS011;4683;50.864;12.086;2024-02-16T15:10:48;3.87;;;2.60;;
9288;SDS011;4683;50.864;12.086;2024-02-16T15:13:18;3.83;;;3.00;;
9288;SDS011;4683;50.864;12.086;2024-02-16T15:15:48;4.20;;;2.70;;
9288;SDS011;4683;50.864;12.086;2024-02-16T15:18:18;3.10;;;2.80;;
9288;SDS011;4683;50.864;12.086;2024-02-16T15:20:48;4.13;;;2.63;;
9288;SDS011;4683;50.864;12.086;2024-02-16T15:23:17;4.03;;;2.90;;
9288;SDS011;4683;50.864;12.086;2024-02-16T15:25:46;3.50;;;3.13;;
9288;SDS011;4683;50.864;12.086;2024-02-16T15:28:15;3.13;;;2.80;;
9288;SDS011;4683;50.864;12.086;2024-02-16T15:30:45;4.00;;;3.00;;
9288;SDS011;4683;50.864;12.086;2024-02-16T15:33:15;3.33;;;3.10;;